ePrivacy and GPDR Cookie Consent by Cookie Consent
EmailTwitter


Surface observations / France / LFBO (07630)

Regions: Quebec | Canada | USA | Europe | France | UK | Elsewhere
Station
Display
Info & Location for LFBO (07630) | Help decoding METAR

Weather Conditions observed on 2022/10/04 at 01:00 UTC at TOULOUSE/BLAGNAC, FR (LFBO)

Temperature: 12.0 Celsius.

Dewpoint: 11.0 Celsius.

Relative Humidity: 94%

Winds: South at 6 km/h or 3 knots.

Mean Sea level Pressure: 102.10 kilopascals.

Coded METAR:

LFBO 040100Z AUTO 19003KT CAVOK 12/11 Q1021 NOSIG=